Time;durP1;ratioP1;P1;durP2;ratioP2;P2;SDS_P1;SDS_P2;PMS_P1;PMS_P2;Temp;Humidity;BMP_temperature;BMP_pressure;BME280_temperature;BME280_humidity;BME280_pressure;Samples;Min_cycle;Max_cycle;Signal;HPM_P1;HPM_P2
2023/08/07 00:00:49;;;;;;;1.42;0.55;;;;;;;;;;5047416;28;20110;-61
2023/08/07 00:03:18;;;;;;;1.70;0.50;;;;;;;;;;5051046;28;20041;-60
2023/08/07 00:05:47;;;;;;;1.88;0.68;;;;;;;;;;5030895;28;20069;-60
2023/08/07 00:08:15;;;;;;;2.67;1.38;;;;;;;;;;5026705;28;20065;-60
2023/08/07 00:10:44;;;;;;;0.82;0.50;;;;;;;;;;5029226;28;20119;-64
2023/08/07 00:13:12;;;;;;;2.30;1.08;;;;;;;;;;5029752;28;20537;-60
2023/08/07 00:15:41;;;;;;;1.00;0.50;;;;;;;;;;5030781;28;20057;-62
2023/08/07 00:18:10;;;;;;;2.35;0.45;;;;;;;;;;5030205;28;20069;-60
2023/08/07 00:20:39;;;;;;;1.45;0.60;;;;;;;;;;5021927;28;20494;-60
2023/08/07 00:23:07;;;;;;;0.68;0.45;;;;;;;;;;5029192;28;20099;-60
2023/08/07 00:25:35;;;;;;;1.02;0.50;;;;;;;;;;5024277;28;20388;-60
2023/08/07 00:28:04;;;;;;;2.03;0.68;;;;;;;;;;5022977;28;20096;-61
2023/08/07 00:30:32;;;;;;;0.75;0.43;;;;;;;;;;5025510;28;20069;-60
2023/08/07 00:33:00;;;;;;;1.30;0.50;;;;;;;;;;5021097;28;20146;-59
2023/08/07 00:35:30;;;;;;;1.00;0.60;;;;;;;;;;5044993;28;20428;-60
2023/08/07 00:37:59;;;;;;;0.73;0.43;;;;;;;;;;5043654;28;20056;-62
2023/08/07 00:40:27;;;;;;;0.77;0.60;;;;;;;;;;5040152;28;20183;-60
2023/08/07 00:42:55;;;;;;;1.08;0.55;;;;;;;;;;5047055;28;20120;-60
2023/08/07 00:45:24;;;;;;;1.08;0.68;;;;;;;;;;5041104;28;20467;-60
2023/08/07 00:47:52;;;;;;;2.80;0.60;;;;;;;;;;5034881;28;20134;-60
2023/08/07 00:50:20;;;;;;;1.23;0.50;;;;;;;;;;5029384;28;20053;-60
2023/08/07 00:52:54;;;;;;;1.55;0.70;;;;;;;;;;5029066;28;20072;-62
2023/08/07 00:55:23;;;;;;;3.60;0.75;;;;;;;;;;5039662;28;20065;-61
2023/08/07 00:57:51;;;;;;;2.88;0.80;;;;;;;;;;5037019;28;20122;-61
2023/08/07 01:00:20;;;;;;;1.02;0.55;;;;;;;;;;5047540;28;20057;-61
2023/08/07 01:02:50;;;;;;;0.63;0.40;;;;;;;;;;5058426;22;20051;-61
2023/08/07 01:05:19;;;;;;;2.28;0.70;;;;;;;;;;5023475;28;20053;-61
2023/08/07 01:07:51;;;;;;;3.05;0.80;;;;;;;;;;5015313;28;20046;-65
2023/08/07 01:10:21;;;;;;;4.03;0.82;;;;;;;;;;5016277;28;20049;-60
2023/08/07 01:12:52;;;;;;;2.70;0.80;;;;;;;;;;5023980;28;20458;-60
2023/08/07 01:15:23;;;;;;;1.80;0.70;;;;;;;;;;5026018;28;20041;-60
2023/08/07 01:17:51;;;;;;;1.90;0.70;;;;;;;;;;5024344;28;20115;-61
2023/08/07 01:20:20;;;;;;;0.73;0.50;;;;;;;;;;5023901;28;20041;-61
2023/08/07 01:22:49;;;;;;;1.88;0.55;;;;;;;;;;5023460;28;20077;-60
2023/08/07 01:25:18;;;;;;;1.27;0.70;;;;;;;;;;5020626;28;20383;-60
2023/08/07 01:27:48;;;;;;;1.70;0.52;;;;;;;;;;5017562;28;20050;-61
2023/08/07 01:30:19;;;;;;;1.73;0.52;;;;;;;;;;5013444;28;20108;-60
2023/08/07 01:32:51;;;;;;;2.20;0.70;;;;;;;;;;5022293;28;20079;-60
2023/08/07 01:35:21;;;;;;;1.02;0.50;;;;;;;;;;5018083;28;20439;-60
2023/08/07 01:37:52;;;;;;;0.90;0.60;;;;;;;;;;5023101;28;20046;-60
2023/08/07 01:40:21;;;;;;;3.03;0.50;;;;;;;;;;5018297;28;20545;-60
2023/08/07 01:42:50;;;;;;;4.78;1.13;;;;;;;;;;5018475;28;20430;-62
2023/08/07 01:45:23;;;;;;;4.18;0.70;;;;;;;;;;5019540;28;20037;-60
2023/08/07 01:47:52;;;;;;;0.65;0.50;;;;;;;;;;5016013;28;20108;-61
2023/08/07 01:50:20;;;;;;;1.50;0.50;;;;;;;;;;5022833;28;20061;-60
2023/08/07 01:52:50;;;;;;;1.95;0.73;;;;;;;;;;5024160;28;20105;-61
2023/08/07 01:55:19;;;;;;;2.15;0.70;;;;;;;;;;5028012;28;20053;-60
2023/08/07 01:57:48;;;;;;;1.27;0.98;;;;;;;;;;5021633;28;20494;-61
2023/08/07 02:00:16;;;;;;;1.05;0.60;;;;;;;;;;5017706;28;20546;-60
2023/08/07 02:02:46;;;;;;;0.88;0.35;;;;;;;;;;5022711;28;20049;-60
2023/08/07 02:05:15;;;;;;;2.20;0.60;;;;;;;;;;5026223;28;20053;-60
2023/08/07 02:07:46;;;;;;;1.33;0.75;;;;;;;;;;5025567;28;20041;-61
2023/08/07 02:10:15;;;;;;;1.45;0.60;;;;;;;;;;5017777;28;20440;-61
2023/08/07 02:12:44;;;;;;;0.88;0.63;;;;;;;;;;5024991;28;20041;-61
2023/08/07 02:15:12;;;;;;;0.90;0.50;;;;;;;;;;5025818;28;20073;-60
2023/08/07 02:17:41;;;;;;;0.80;0.50;;;;;;;;;;5023517;28;20490;-60
2023/08/07 02:20:11;;;;;;;1.45;0.55;;;;;;;;;;5022704;28;20486;-61
2023/08/07 02:22:40;;;;;;;1.10;0.50;;;;;;;;;;5024226;28;20728;-60
2023/08/07 02:25:08;;;;;;;2.58;0.60;;;;;;;;;;5021281;28;20379;-60
2023/08/07 02:27:38;;;;;;;0.90;0.60;;;;;;;;;;5026864;28;20146;-62
2023/08/07 02:30:07;;;;;;;1.40;0.70;;;;;;;;;;5025932;28;20086;-63
2023/08/07 02:32:35;;;;;;;1.80;0.65;;;;;;;;;;5025555;28;20130;-60
2023/08/07 02:35:04;;;;;;;1.23;0.68;;;;;;;;;;5025500;28;20087;-60
2023/08/07 02:37:32;;;;;;;2.28;0.80;;;;;;;;;;5020937;28;20490;-60
2023/08/07 02:40:00;;;;;;;1.58;0.88;;;;;;;;;;5019528;28;20089;-61
2023/08/07 02:42:29;;;;;;;2.42;0.77;;;;;;;;;;5023279;28;20571;-61
2023/08/07 02:44:58;;;;;;;1.60;0.70;;;;;;;;;;5034139;28;20132;-61
2023/08/07 02:47:27;;;;;;;1.33;0.80;;;;;;;;;;5045243;28;20071;-60
2023/08/07 02:49:55;;;;;;;1.63;0.80;;;;;;;;;;5043213;28;20037;-60
2023/08/07 02:52:24;;;;;;;0.88;0.57;;;;;;;;;;5045207;28;20095;-60
2023/08/07 02:54:52;;;;;;;1.13;0.45;;;;;;;;;;5030394;28;20046;-60
2023/08/07 02:57:20;;;;;;;1.65;0.63;;;;;;;;;;5024546;28;20076;-62
2023/08/07 02:59:49;;;;;;;1.38;0.70;;;;;;;;;;5027911;28;20496;-60
2023/08/07 03:02:18;;;;;;;2.22;0.82;;;;;;;;;;5031669;28;20061;-60
2023/08/07 03:04:47;;;;;;;1.70;0.80;;;;;;;;;;5029276;28;21193;-61
2023/08/07 03:07:15;;;;;;;8.25;1.05;;;;;;;;;;5031731;28;20077;-60
2023/08/07 03:09:47;;;;;;;2.55;0.90;;;;;;;;;;5019830;28;20066;-60
2023/08/07 03:12:15;;;;;;;1.33;0.70;;;;;;;;;;5031632;28;20341;-60
2023/08/07 03:14:43;;;;;;;5.32;0.95;;;;;;;;;;5033782;28;20733;-61
2023/08/07 03:17:12;;;;;;;2.75;0.98;;;;;;;;;;5036081;28;20073;-61
2023/08/07 03:19:43;;;;;;;1.17;0.60;;;;;;;;;;5030683;28;20060;-61
2023/08/07 03:22:12;;;;;;;1.88;1.00;;;;;;;;;;5038289;28;20069;-60
2023/08/07 03:24:40;;;;;;;1.85;0.70;;;;;;;;;;5034622;28;20490;-60
2023/08/07 03:27:08;;;;;;;2.25;0.90;;;;;;;;;;5035206;28;20049;-60
2023/08/07 03:29:37;;;;;;;2.15;1.23;;;;;;;;;;5028197;28;20100;-61
2023/08/07 03:32:05;;;;;;;1.70;0.90;;;;;;;;;;5029438;28;20119;-60
2023/08/07 03:34:33;;;;;;;2.08;0.88;;;;;;;;;;5038329;28;20111;-61
2023/08/07 03:37:03;;;;;;;1.33;0.60;;;;;;;;;;5037589;28;20053;-60
2023/08/07 03:39:32;;;;;;;0.73;0.70;;;;;;;;;;5036620;28;20057;-60
2023/08/07 03:42:00;;;;;;;2.05;0.90;;;;;;;;;;5030289;28;20046;-60
2023/08/07 03:44:28;;;;;;;1.35;0.85;;;;;;;;;;5041738;28;20145;-60
2023/08/07 03:46:57;;;;;;;1.15;0.65;;;;;;;;;;5047036;28;20128;-61
2023/08/07 03:49:26;;;;;;;3.42;1.00;;;;;;;;;;5050580;28;20045;-62
2023/08/07 03:51:54;;;;;;;3.30;0.80;;;;;;;;;;5047804;28;20049;-63
2023/08/07 03:54:24;;;;;;;1.73;0.88;;;;;;;;;;5042884;28;20045;-62
2023/08/07 03:56:52;;;;;;;2.35;0.95;;;;;;;;;;5047774;28;20081;-60
2023/08/07 03:59:21;;;;;;;0.88;0.68;;;;;;;;;;5046521;28;20116;-60
2023/08/07 04:01:49;;;;;;;2.05;1.00;;;;;;;;;;5048841;28;20041;-60
2023/08/07 04:04:18;;;;;;;1.90;0.88;;;;;;;;;;5062939;28;20126;-60
2023/08/07 04:06:46;;;;;;;5.63;0.90;;;;;;;;;;5069915;28;20106;-60
2023/08/07 04:09:16;;;;;;;1.58;0.70;;;;;;;;;;5064184;28;20102;-60
2023/08/07 04:11:46;;;;;;;2.40;1.00;;;;;;;;;;5070621;28;20052;-60
2023/08/07 04:14:15;;;;;;;1.42;0.82;;;;;;;;;;5068775;28;20040;-61
2023/08/07 04:16:43;;;;;;;1.88;0.90;;;;;;;;;;5066600;28;20048;-60
2023/08/07 04:19:11;;;;;;;2.10;0.80;;;;;;;;;;5068757;28;20401;-60
2023/08/07 04:21:40;;;;;;;2.50;0.80;;;;;;;;;;5069970;28;20123;-61
2023/08/07 04:24:10;;;;;;;3.75;1.20;;;;;;;;;;5064445;28;20075;-60
2023/08/07 04:26:39;;;;;;;1.33;0.82;;;;;;;;;;5064051;28;20106;-60
2023/08/07 04:29:08;;;;;;;1.50;0.68;;;;;;;;;;5065602;28;20041;-62
2023/08/07 04:31:37;;;;;;;2.65;0.80;;;;;;;;;;5066572;28;20056;-59
2023/08/07 04:34:05;;;;;;;3.92;1.05;;;;;;;;;;5068983;28;20047;-62
2023/08/07 04:36:34;;;;;;;2.67;1.20;;;;;;;;;;5068755;28;20133;-61
2023/08/07 04:39:02;;;;;;;0.75;0.60;;;;;;;;;;5066670;28;20229;-60
2023/08/07 04:41:31;;;;;;;1.27;0.60;;;;;;;;;;5067312;28;20467;-60
2023/08/07 04:43:59;;;;;;;4.22;1.05;;;;;;;;;;5061651;28;20119;-59
2023/08/07 04:46:30;;;;;;;1.85;0.90;;;;;;;;;;5068227;28;20452;-61
2023/08/07 04:48:59;;;;;;;2.65;1.15;;;;;;;;;;5069077;28;20140;-60
2023/08/07 04:51:28;;;;;;;1.35;0.68;;;;;;;;;;5068718;28;20044;-60
2023/08/07 04:53:58;;;;;;;2.40;0.85;;;;;;;;;;5065127;28;20040;-59
2023/08/07 04:56:27;;;;;;;1.73;1.00;;;;;;;;;;5065732;28;20511;-60
2023/08/07 04:58:55;;;;;;;1.95;0.88;;;;;;;;;;5064287;28;20677;-60
2023/08/07 05:01:24;;;;;;;3.80;1.00;;;;;;;;;;5067174;28;20084;-63
2023/08/07 05:03:53;;;;;;;4.20;1.08;;;;;;;;;;5061896;28;20057;-62
2023/08/07 05:06:22;;;;;;;2.28;1.00;;;;;;;;;;5058669;28;20049;-61
2023/08/07 05:08:50;;;;;;;6.18;1.10;;;;;;;;;;5060515;28;20045;-61
2023/08/07 05:11:20;;;;;;;1.80;1.10;;;;;;;;;;5061624;28;20145;-61
2023/08/07 05:13:48;;;;;;;4.03;1.17;;;;;;;;;;5061808;28;20044;-62
2023/08/07 05:16:18;;;;;;;3.97;1.20;;;;;;;;;;5059452;28;20491;-63
2023/08/07 05:18:47;;;;;;;1.73;0.95;;;;;;;;;;5063167;28;20060;-61
2023/08/07 05:21:19;;;;;;;2.15;0.90;;;;;;;;;;5060179;28;20060;-61
2023/08/07 05:23:48;;;;;;;1.85;1.05;;;;;;;;;;5062234;28;20131;-60
2023/08/07 05:26:18;;;;;;;2.75;0.70;;;;;;;;;;5059439;28;20104;-63
2023/08/07 05:28:46;;;;;;;1.63;0.80;;;;;;;;;;5055527;28;20741;-62
2023/08/07 05:31:15;;;;;;;1.33;0.70;;;;;;;;;;5055083;28;20080;-61
2023/08/07 05:33:43;;;;;;;2.33;1.00;;;;;;;;;;5051980;28;20047;-61
2023/08/07 05:36:11;;;;;;;3.35;1.10;;;;;;;;;;5049139;28;20098;-65
2023/08/07 05:38:41;;;;;;;2.25;1.00;;;;;;;;;;5050369;28;20050;-61
2023/08/07 05:41:10;;;;;;;3.08;0.90;;;;;;;;;;5050018;28;20476;-61
2023/08/07 05:43:38;;;;;;;3.13;1.20;;;;;;;;;;5052960;28;20154;-60
2023/08/07 05:46:07;;;;;;;1.88;0.98;;;;;;;;;;5053967;28;20094;-61
2023/08/07 05:48:35;;;;;;;3.38;1.00;;;;;;;;;;5058063;28;20075;-60
2023/08/07 05:51:03;;;;;;;4.32;1.25;;;;;;;;;;5053445;28;20084;-60
2023/08/07 05:53:32;;;;;;;2.78;1.10;;;;;;;;;;5053263;28;20122;-65
2023/08/07 05:56:01;;;;;;;2.22;0.98;;;;;;;;;;5052823;28;20445;-63
2023/08/07 05:58:30;;;;;;;1.60;1.00;;;;;;;;;;5058115;28;20149;-61
2023/08/07 06:00:58;;;;;;;2.58;0.85;;;;;;;;;;5053404;28;20467;-60
2023/08/07 06:03:27;;;;;;;1.65;0.77;;;;;;;;;;5057270;28;20056;-61
2023/08/07 06:05:56;;;;;;;1.98;0.95;;;;;;;;;;5056706;28;20048;-61
2023/08/07 06:08:24;;;;;;;3.78;1.30;;;;;;;;;;5056702;28;20493;-62
2023/08/07 06:10:53;;;;;;;1.10;0.70;;;;;;;;;;5052749;28;20040;-64
2023/08/07 06:13:23;;;;;;;2.88;1.48;;;;;;;;;;5054069;28;20065;-62
2023/08/07 06:16:02;;;;;;;2.53;0.90;;;;;;;;;;5054913;28;20044;-65
2023/08/07 06:18:31;;;;;;;3.40;1.20;;;;;;;;;;5056276;28;20052;-60
2023/08/07 06:20:59;;;;;;;3.10;1.02;;;;;;;;;;5057589;28;20044;-60
2023/08/07 06:23:28;;;;;;;1.75;1.00;;;;;;;;;;5056013;28;20044;-62
2023/08/07 06:25:57;;;;;;;1.60;1.13;;;;;;;;;;5051164;28;20064;-63
2023/08/07 06:28:28;;;;;;;1.48;0.65;;;;;;;;;;5056813;28;20049;-61
2023/08/07 06:31:01;;;;;;;2.85;1.05;;;;;;;;;;5054140;28;20051;-61
2023/08/07 06:33:30;;;;;;;2.58;0.98;;;;;;;;;;5060824;28;20044;-60
2023/08/07 06:35:58;;;;;;;4.38;0.90;;;;;;;;;;5058879;28;20048;-61
2023/08/07 06:38:27;;;;;;;1.88;0.88;;;;;;;;;;5058152;28;20102;-63
2023/08/07 06:40:55;;;;;;;3.40;0.85;;;;;;;;;;5058777;28;20102;-60
2023/08/07 06:43:24;;;;;;;2.95;0.98;;;;;;;;;;5055685;28;20057;-61
2023/08/07 06:45:53;;;;;;;2.78;1.00;;;;;;;;;;5055800;28;20638;-60
2023/08/07 06:48:22;;;;;;;2.17;0.90;;;;;;;;;;5060360;28;20044;-62
2023/08/07 06:50:50;;;;;;;3.20;1.00;;;;;;;;;;5056848;28;20577;-63
2023/08/07 06:53:19;;;;;;;1.98;1.13;;;;;;;;;;5054216;28;20053;-62
2023/08/07 06:55:47;;;;;;;4.18;0.98;;;;;;;;;;5057476;28;20053;-61
2023/08/07 06:58:16;;;;;;;3.05;0.55;;;;;;;;;;5061202;28;20048;-59
2023/08/07 07:00:44;;;;;;;3.65;0.82;;;;;;;;;;5055974;28;20048;-61
2023/08/07 07:03:14;;;;;;;2.45;0.88;;;;;;;;;;5060136;28;20825;-61
2023/08/07 07:05:42;;;;;;;4.40;1.20;;;;;;;;;;5057772;28;20182;-61
2023/08/07 07:08:11;;;;;;;2.13;0.77;;;;;;;;;;5059039;28;20045;-61
2023/08/07 07:10:39;;;;;;;1.30;0.93;;;;;;;;;;5057061;28;20072;-62
2023/08/07 07:13:09;;;;;;;2.13;0.80;;;;;;;;;;5061509;28;20044;-60
2023/08/07 07:15:37;;;;;;;1.08;0.73;;;;;;;;;;5057228;28;20044;-66
2023/08/07 07:18:06;;;;;;;2.15;1.02;;;;;;;;;;5057139;28;20059;-60
2023/08/07 07:20:35;;;;;;;4.85;1.15;;;;;;;;;;5056250;28;20046;-62
2023/08/07 07:23:04;;;;;;;3.97;0.80;;;;;;;;;;5059844;28;20098;-64
2023/08/07 07:25:32;;;;;;;3.13;0.80;;;;;;;;;;5056562;28;20106;-65
2023/08/07 07:28:01;;;;;;;2.65;0.93;;;;;;;;;;5060147;28;20036;-65
2023/08/07 07:30:29;;;;;;;2.03;1.05;;;;;;;;;;5057100;28;20067;-60
2023/08/07 07:32:57;;;;;;;3.53;1.08;;;;;;;;;;5057220;28;20044;-61
2023/08/07 07:35:27;;;;;;;2.30;1.13;;;;;;;;;;5055533;28;20063;-60
2023/08/07 07:37:57;;;;;;;1.60;0.68;;;;;;;;;;5055096;28;20497;-62
2023/08/07 07:40:25;;;;;;;3.65;1.35;;;;;;;;;;5054062;28;20139;-66
2023/08/07 07:42:53;;;;;;;3.42;1.23;;;;;;;;;;5056419;28;20564;-62
2023/08/07 07:45:22;;;;;;;1.10;0.75;;;;;;;;;;5053059;28;20040;-60
2023/08/07 07:47:50;;;;;;;3.92;1.20;;;;;;;;;;5053863;28;20037;-62
2023/08/07 07:50:19;;;;;;;2.25;0.90;;;;;;;;;;5060161;28;20095;-61
2023/08/07 07:52:47;;;;;;;1.65;0.98;;;;;;;;;;5062717;28;20396;-63
2023/08/07 07:55:17;;;;;;;6.43;0.75;;;;;;;;;;5055638;28;20094;-64
2023/08/07 07:57:46;;;;;;;1.95;0.75;;;;;;;;;;5057495;28;20052;-63
2023/08/07 08:00:14;;;;;;;3.03;0.98;;;;;;;;;;5061107;28;20426;-61
2023/08/07 08:02:43;;;;;;;1.60;0.90;;;;;;;;;;5060183;28;20045;-60
2023/08/07 08:05:12;;;;;;;3.97;1.00;;;;;;;;;;5055229;28;20056;-63
2023/08/07 08:07:40;;;;;;;2.88;0.88;;;;;;;;;;5054353;28;20132;-61
2023/08/07 08:10:09;;;;;;;1.45;1.05;;;;;;;;;;5056152;28;20477;-61
2023/08/07 08:12:39;;;;;;;2.30;0.93;;;;;;;;;;5058289;28;20063;-59
2023/08/07 08:15:08;;;;;;;2.33;1.00;;;;;;;;;;5056398;28;20041;-60
2023/08/07 08:17:36;;;;;;;3.10;1.05;;;;;;;;;;5055865;28;20045;-62
2023/08/07 08:20:06;;;;;;;1.67;0.80;;;;;;;;;;5058586;28;20218;-61
2023/08/07 08:22:34;;;;;;;3.60;1.20;;;;;;;;;;5055921;28;20083;-61
2023/08/07 08:25:04;;;;;;;3.83;0.82;;;;;;;;;;5055415;28;21254;-60
2023/08/07 08:27:32;;;;;;;3.70;1.10;;;;;;;;;;5057472;28;20053;-61
2023/08/07 08:30:04;;;;;;;1.27;0.80;;;;;;;;;;5058612;28;20044;-60
2023/08/07 08:32:32;;;;;;;1.73;0.95;;;;;;;;;;5055476;28;20040;-64
2023/08/07 08:35:01;;;;;;;4.57;0.82;;;;;;;;;;5051765;28;20052;-63
2023/08/07 08:37:30;;;;;;;1.73;1.00;;;;;;;;;;5054237;28;20048;-60
2023/08/07 08:39:58;;;;;;;1.58;0.90;;;;;;;;;;5051548;28;20434;-61
2023/08/07 08:42:27;;;;;;;5.82;0.90;;;;;;;;;;5055140;28;20110;-62
2023/08/07 08:44:56;;;;;;;2.40;0.93;;;;;;;;;;5052571;28;20052;-63
2023/08/07 08:47:26;;;;;;;2.25;0.88;;;;;;;;;;5053263;28;20509;-60
2023/08/07 08:49:57;;;;;;;2.65;1.00;;;;;;;;;;5054523;28;20044;-60
2023/08/07 08:52:26;;;;;;;1.73;0.80;;;;;;;;;;5055090;28;20654;-60
2023/08/07 08:54:54;;;;;;;4.43;0.95;;;;;;;;;;5049523;28;20060;-61
2023/08/07 08:57:23;;;;;;;2.08;1.00;;;;;;;;;;5051524;28;20072;-61
2023/08/07 08:59:52;;;;;;;2.22;1.15;;;;;;;;;;5052848;28;20044;-66
2023/08/07 09:02:20;;;;;;;2.40;0.80;;;;;;;;;;5058742;28;20060;-62
2023/08/07 09:04:50;;;;;;;1.67;0.80;;;;;;;;;;5049669;28;20493;-63
2023/08/07 09:07:23;;;;;;;2.65;0.90;;;;;;;;;;5054810;28;20135;-63
2023/08/07 09:09:54;;;;;;;2.22;0.68;;;;;;;;;;5053328;28;20516;-61
2023/08/07 09:12:27;;;;;;;3.10;1.08;;;;;;;;;;5052116;28;20121;-60
2023/08/07 09:14:57;;;;;;;5.72;1.20;;;;;;;;;;5048604;28;20560;-60
2023/08/07 09:17:29;;;;;;;2.30;0.98;;;;;;;;;;5051407;28;20514;-61
2023/08/07 09:19:59;;;;;;;2.33;0.98;;;;;;;;;;5050428;28;20524;-62
2023/08/07 09:22:28;;;;;;;3.65;0.77;;;;;;;;;;5054924;28;20044;-62
2023/08/07 09:24:59;;;;;;;1.20;0.80;;;;;;;;;;5052829;28;20052;-61
2023/08/07 09:27:28;;;;;;;1.38;0.70;;;;;;;;;;5055347;28;20048;-61
2023/08/07 09:29:56;;;;;;;3.20;1.20;;;;;;;;;;5054645;28;21199;-58
2023/08/07 09:32:25;;;;;;;1.50;0.70;;;;;;;;;;5054869;28;20053;-65
2023/08/07 09:34:53;;;;;;;1.40;0.85;;;;;;;;;;5054167;28;20131;-62
2023/08/07 09:37:24;;;;;;;1.73;0.90;;;;;;;;;;5054901;28;20109;-60
2023/08/07 09:39:53;;;;;;;3.10;1.15;;;;;;;;;;5054756;28;20049;-59
2023/08/07 09:42:21;;;;;;;3.63;0.80;;;;;;;;;;5047600;28;20041;-63
2023/08/07 09:44:50;;;;;;;5.47;1.17;;;;;;;;;;5055155;28;20048;-62
2023/08/07 09:47:19;;;;;;;1.80;0.80;;;;;;;;;;5055725;28;20040;-59
2023/08/07 09:49:47;;;;;;;1.83;1.00;;;;;;;;;;5052440;28;20053;-60
2023/08/07 09:52:16;;;;;;;2.47;0.90;;;;;;;;;;5055593;28;20076;-59
2023/08/07 09:54:46;;;;;;;2.20;0.98;;;;;;;;;;5056401;28;20102;-58
2023/08/07 09:57:15;;;;;;;2.95;1.05;;;;;;;;;;5049273;28;20062;-59
2023/08/07 09:59:43;;;;;;;1.70;1.10;;;;;;;;;;5057639;28;20047;-59
2023/08/07 10:02:12;;;;;;;1.60;0.90;;;;;;;;;;5056816;28;20052;-60
2023/08/07 10:04:41;;;;;;;6.18;1.45;;;;;;;;;;5054812;28;20139;-59
2023/08/07 10:07:12;;;;;;;2.75;1.02;;;;;;;;;;5052427;28;20052;-62
2023/08/07 10:09:41;;;;;;;1.52;0.80;;;;;;;;;;5055237;28;20135;-60
2023/08/07 10:12:11;;;;;;;2.28;0.95;;;;;;;;;;5054903;28;20489;-59
2023/08/07 10:14:40;;;;;;;5.63;1.23;;;;;;;;;;5053422;28;20048;-60
2023/08/07 10:17:08;;;;;;;2.83;1.08;;;;;;;;;;5055002;28;20057;-59
2023/08/07 10:19:38;;;;;;;1.15;0.80;;;;;;;;;;5056857;28;20106;-60
2023/08/07 10:22:07;;;;;;;6.35;1.25;;;;;;;;;;5053874;28;20063;-64
2023/08/07 10:24:38;;;;;;;1.60;1.00;;;;;;;;;;5056652;28;20135;-60
2023/08/07 10:27:07;;;;;;;2.67;0.70;;;;;;;;;;5056448;28;20905;-59
2023/08/07 10:29:37;;;;;;;1.77;1.00;;;;;;;;;;5051189;28;20077;-59
2023/08/07 10:32:06;;;;;;;2.55;1.15;;;;;;;;;;5054511;28;20129;-59
2023/08/07 10:34:35;;;;;;;3.00;1.17;;;;;;;;;;5051480;28;20511;-60
2023/08/07 10:37:03;;;;;;;1.65;0.90;;;;;;;;;;5056119;28;20135;-59
2023/08/07 10:39:32;;;;;;;3.90;0.90;;;;;;;;;;5053609;28;21079;-60
2023/08/07 10:42:01;;;;;;;2.08;1.02;;;;;;;;;;5052967;28;20045;-60
2023/08/07 10:44:32;;;;;;;1.75;1.05;;;;;;;;;;5053010;28;20052;-59
2023/08/07 10:47:02;;;;;;;3.40;1.00;;;;;;;;;;5054631;28;20087;-61
2023/08/07 10:49:34;;;;;;;2.92;1.02;;;;;;;;;;5055282;28;20049;-60
2023/08/07 10:52:10;;;;;;;1.88;0.85;;;;;;;;;;5054316;28;20485;-62
2023/08/07 10:54:42;;;;;;;2.83;1.00;;;;;;;;;;5052369;28;20044;-59
2023/08/07 10:57:14;;;;;;;1.95;0.90;;;;;;;;;;5054790;28;20047;-61
2023/08/07 10:59:46;;;;;;;6.20;1.05;;;;;;;;;;5057589;28;20048;-59
2023/08/07 11:02:24;;;;;;;2.22;1.00;;;;;;;;;;5051255;28;20092;-61
2023/08/07 11:04:53;;;;;;;2.33;0.82;;;;;;;;;;5051330;28;20044;-58
2023/08/07 11:07:26;;;;;;;3.00;0.95;;;;;;;;;;5053580;28;20055;-60
2023/08/07 11:09:54;;;;;;;5.43;1.08;;;;;;;;;;5058575;28;20044;-60
2023/08/07 11:12:26;;;;;;;2.50;0.80;;;;;;;;;;5053313;28;20068;-61
2023/08/07 11:14:56;;;;;;;1.60;0.90;;;;;;;;;;5052727;28;20045;-60
2023/08/07 11:17:27;;;;;;;1.95;0.98;;;;;;;;;;5052264;28;20485;-60
2023/08/07 11:19:56;;;;;;;3.47;1.20;;;;;;;;;;5057671;28;20893;-60
2023/08/07 11:22:25;;;;;;;3.72;1.00;;;;;;;;;;5060592;28;20071;-59
2023/08/07 11:24:53;;;;;;;4.28;0.88;;;;;;;;;;5059849;28;20044;-60
2023/08/07 11:27:23;;;;;;;1.35;1.00;;;;;;;;;;5058109;28;20084;-60
2023/08/07 11:29:51;;;;;;;1.75;0.98;;;;;;;;;;5060345;28;20044;-59
2023/08/07 11:32:20;;;;;;;2.85;0.80;;;;;;;;;;5059075;28;20205;-59
2023/08/07 11:34:51;;;;;;;2.65;1.00;;;;;;;;;;5054588;28;20049;-60
2023/08/07 11:37:20;;;;;;;3.35;0.90;;;;;;;;;;5058569;28;20163;-61
2023/08/07 11:39:48;;;;;;;2.72;0.95;;;;;;;;;;5057140;28;20060;-60
2023/08/07 11:42:16;;;;;;;4.35;0.80;;;;;;;;;;5049206;28;20105;-60
2023/08/07 11:44:45;;;;;;;3.55;1.08;;;;;;;;;;5057887;28;20095;-58
2023/08/07 11:47:13;;;;;;;1.17;0.88;;;;;;;;;;5053333;28;20485;-65
2023/08/07 11:49:42;;;;;;;1.67;0.90;;;;;;;;;;5058059;28;20041;-60
2023/08/07 11:52:13;;;;;;;1.40;0.90;;;;;;;;;;5058260;28;20123;-61
2023/08/07 11:54:42;;;;;;;2.08;1.00;;;;;;;;;;5050241;28;20135;-61
2023/08/07 11:57:16;;;;;;;2.67;1.08;;;;;;;;;;5056918;28;20094;-60
2023/08/07 11:59:48;;;;;;;1.30;1.08;;;;;;;;;;5058802;28;20570;-60
2023/08/07 12:02:17;;;;;;;1.70;0.70;;;;;;;;;;5055202;28;20478;-64
2023/08/07 12:04:45;;;;;;;0.95;0.75;;;;;;;;;;5039181;28;20213;-63
2023/08/07 12:07:19;;;;;;;2.72;1.00;;;;;;;;;;5045162;28;20110;-60
2023/08/07 12:09:49;;;;;;;2.63;0.93;;;;;;;;;;5046127;28;20769;-65
2023/08/07 12:12:17;;;;;;;1.48;0.90;;;;;;;;;;5043835;28;20053;-63
2023/08/07 12:14:45;;;;;;;1.48;0.98;;;;;;;;;;5045785;28;20107;-60
2023/08/07 12:17:14;;;;;;;5.50;1.13;;;;;;;;;;5046684;28;20503;-62
2023/08/07 12:19:45;;;;;;;1.50;0.90;;;;;;;;;;5041542;28;20049;-60
2023/08/07 12:22:15;;;;;;;1.63;0.70;;;;;;;;;;5045703;28;20056;-60
2023/08/07 12:24:44;;;;;;;1.95;0.90;;;;;;;;;;5043916;28;20064;-65
2023/08/07 12:27:12;;;;;;;2.42;0.88;;;;;;;;;;5041935;28;20049;-65
2023/08/07 12:29:40;;;;;;;1.10;0.77;;;;;;;;;;5041371;28;20568;-59
2023/08/07 12:32:10;;;;;;;1.27;0.70;;;;;;;;;;5038032;28;20576;-59
2023/08/07 12:34:38;;;;;;;3.65;1.10;;;;;;;;;;5038339;28;20095;-59
2023/08/07 12:37:33;;;;;;;1.83;1.10;;;;;;;;;;5042968;28;20059;-65
2023/08/07 12:40:02;;;;;;;;;;;;;;;;;;5044702;28;20469;-60
2023/08/07 12:42:34;;;;;;;2.70;1.08;;;;;;;;;;5041061;28;19979;-60
2023/08/07 12:45:02;;;;;;;2.15;1.40;;;;;;;;;;5042097;28;20045;-62
2023/08/07 12:47:30;;;;;;;1.30;1.00;;;;;;;;;;5042355;28;20041;-65
2023/08/07 12:49:59;;;;;;;1.60;0.60;;;;;;;;;;5044376;28;20044;-62
2023/08/07 12:52:29;;;;;;;5.28;0.85;;;;;;;;;;5045554;28;20049;-59
2023/08/07 12:54:58;;;;;;;1.80;1.00;;;;;;;;;;5041395;28;20398;-64
2023/08/07 12:57:26;;;;;;;2.75;0.80;;;;;;;;;;5041311;28;20138;-63
2023/08/07 12:59:55;;;;;;;3.97;1.27;;;;;;;;;;5042040;28;20076;-61
2023/08/07 13:02:23;;;;;;;1.20;0.93;;;;;;;;;;5045484;28;20464;-61
2023/08/07 13:04:51;;;;;;;1.40;0.90;;;;;;;;;;5061763;28;20103;-60
2023/08/07 13:07:20;;;;;;;1.75;1.08;;;;;;;;;;5060149;28;20091;-60
2023/08/07 13:09:49;;;;;;;1.05;0.73;;;;;;;;;;5059634;28;20470;-64
2023/08/07 13:12:18;;;;;;;3.35;0.88;;;;;;;;;;5057937;28;20181;-62
2023/08/07 13:14:46;;;;;;;1.40;0.80;;;;;;;;;;5059704;28;20426;-66
2023/08/07 13:17:15;;;;;;;3.03;1.33;;;;;;;;;;5059534;28;20084;-60
2023/08/07 13:19:43;;;;;;;4.57;1.30;;;;;;;;;;5054537;28;20052;-65
2023/08/07 13:22:11;;;;;;;3.38;0.80;;;;;;;;;;5057384;28;20044;-64
2023/08/07 13:24:40;;;;;;;1.35;0.80;;;;;;;;;;5059818;28;20053;-65
2023/08/07 13:27:09;;;;;;;2.67;0.93;;;;;;;;;;5061393;28;20064;-60
2023/08/07 13:29:38;;;;;;;0.93;0.70;;;;;;;;;;5060208;28;20056;-62
2023/08/07 13:32:09;;;;;;;3.50;0.80;;;;;;;;;;5056002;28;20485;-60
2023/08/07 13:34:37;;;;;;;6.75;1.08;;;;;;;;;;5058268;28;20052;-63
2023/08/07 13:37:06;;;;;;;2.95;1.10;;;;;;;;;;5059458;28;20098;-62
2023/08/07 13:39:35;;;;;;;1.55;0.77;;;;;;;;;;5058296;28;20420;-61
2023/08/07 13:42:03;;;;;;;2.05;0.88;;;;;;;;;;5057844;28;20053;-60
2023/08/07 13:44:33;;;;;;;4.38;0.80;;;;;;;;;;5058323;28;20556;-62
2023/08/07 13:47:01;;;;;;;4.30;1.10;;;;;;;;;;5060945;28;20131;-62
2023/08/07 13:49:30;;;;;;;1.27;0.75;;;;;;;;;;5059281;28;20348;-60
2023/08/07 13:51:58;;;;;;;1.30;0.77;;;;;;;;;;5060188;28;20056;-60
2023/08/07 13:54:27;;;;;;;1.77;1.25;;;;;;;;;;5056633;28;20118;-62
2023/08/07 13:56:55;;;;;;;1.63;0.80;;;;;;;;;;5058434;28;20133;-61
2023/08/07 13:59:23;;;;;;;3.63;0.80;;;;;;;;;;5060001;28;20048;-62
2023/08/07 14:01:54;;;;;;;2.55;0.88;;;;;;;;;;5059374;28;20052;-62
2023/08/07 14:04:23;;;;;;;2.03;0.80;;;;;;;;;;5044080;28;20047;-61
2023/08/07 14:06:52;;;;;;;1.27;0.80;;;;;;;;;;5043859;28;20083;-60
2023/08/07 14:09:21;;;;;;;4.03;0.75;;;;;;;;;;5044940;28;20037;-60
2023/08/07 14:11:50;;;;;;;1.60;1.13;;;;;;;;;;5043689;28;20474;-61
2023/08/07 14:14:18;;;;;;;3.72;1.00;;;;;;;;;;5044852;28;20058;-61
2023/08/07 14:16:48;;;;;;;2.13;0.82;;;;;;;;;;5043599;28;20153;-64
2023/08/07 14:19:18;;;;;;;1.58;0.70;;;;;;;;;;5040276;28;20044;-66
2023/08/07 14:21:46;;;;;;;1.30;0.70;;;;;;;;;;5041730;28;20448;-62
2023/08/07 14:24:16;;;;;;;2.05;0.95;;;;;;;;;;5040813;28;20056;-62
2023/08/07 14:26:44;;;;;;;1.67;0.80;;;;;;;;;;5040920;28;20052;-66
2023/08/07 14:29:14;;;;;;;1.92;1.00;;;;;;;;;;5041960;28;20576;-62
2023/08/07 14:31:42;;;;;;;2.22;0.88;;;;;;;;;;5044032;28;20148;-62
2023/08/07 14:34:11;;;;;;;2.30;0.93;;;;;;;;;;5042407;28;20049;-62
2023/08/07 14:36:41;;;;;;;5.40;0.85;;;;;;;;;;5041985;28;20048;-60
2023/08/07 14:39:10;;;;;;;1.83;0.88;;;;;;;;;;5041039;28;20049;-66
2023/08/07 14:41:38;;;;;;;5.35;0.98;;;;;;;;;;5039644;28;20055;-62
2023/08/07 14:44:06;;;;;;;1.95;0.85;;;;;;;;;;5037495;28;20056;-62
2023/08/07 14:46:35;;;;;;;2.88;1.10;;;;;;;;;;5041738;28;20041;-64
2023/08/07 14:49:03;;;;;;;2.63;0.88;;;;;;;;;;5041259;28;20095;-65
2023/08/07 14:51:32;;;;;;;2.75;1.10;;;;;;;;;;5041119;28;20087;-65
2023/08/07 14:54:02;;;;;;;2.92;0.98;;;;;;;;;;5044201;28;20057;-60